Terminal Aerodrome Forecast
Issued by NWS

Home | Current Version | Previous Version | Text Only | Print | Product List | Glossary On
Versions: 1 2 3 4 5 6 7 8 9 10 11 12 13 14 15 16 17 18 19 20 21 22 23 24 25
000
FTUS46 KLOX 171300 AAB
TAFSBP
TAF AMD
KSBP 171328Z 1713/1812 12006KT 4SM BR SCT005 BKN030
     FM171800 VRB03KT P6SM BKN200
     FM172000 30012KT P6SM BKN200
     FM180200 VRB03KT P6SM BKN010=

USA.gov is the U.S. government's official web portal to all federal, state and local government web resources and services.